createdAt,value
2022-11-24T00:00:57.327Z,991.47
2022-11-24T00:01:57.341Z,991.51
2022-11-24T00:02:57.414Z,991.50
2022-11-24T00:03:57.305Z,991.52
2022-11-24T00:04:57.596Z,991.44
2022-11-24T00:05:57.266Z,991.54
2022-11-24T00:06:57.262Z,991.58
2022-11-24T00:07:57.287Z,991.55
2022-11-24T00:08:57.234Z,991.53
2022-11-24T00:09:57.442Z,991.59
2022-11-24T00:10:57.243Z,991.63
2022-11-24T00:11:57.233Z,991.63
2022-11-24T00:12:57.179Z,991.65
2022-11-24T00:13:57.183Z,991.66
2022-11-24T00:14:57.157Z,991.59
2022-11-24T00:15:57.149Z,991.60
2022-11-24T00:16:57.163Z,991.63
2022-11-24T00:17:57.344Z,991.59
2022-11-24T00:18:57.125Z,991.53
2022-11-24T00:19:57.114Z,991.50
2022-11-24T00:20:57.093Z,991.57
2022-11-24T00:21:57.092Z,991.60
2022-11-24T00:22:57.078Z,991.52
2022-11-24T00:23:57.069Z,991.62
2022-11-24T00:24:57.055Z,991.64
2022-11-24T00:25:57.046Z,991.72
2022-11-24T00:26:57.047Z,991.58
2022-11-24T00:27:57.028Z,991.59
2022-11-24T00:28:56.992Z,991.57
2022-11-24T00:29:56.990Z,991.68
2022-11-24T00:30:57.050Z,991.66
2022-11-24T00:31:56.991Z,991.65
2022-11-24T00:32:57.287Z,991.79
2022-11-24T00:33:56.961Z,991.71
2022-11-24T00:34:56.945Z,991.71
2022-11-24T00:35:56.913Z,991.64
2022-11-24T00:36:56.949Z,991.70
2022-11-24T00:37:56.905Z,991.69
2022-11-24T00:38:56.873Z,991.73
2022-11-24T00:39:56.876Z,991.74
2022-11-24T00:40:56.845Z,991.79
2022-11-24T00:41:56.844Z,991.78
2022-11-24T00:42:57.116Z,991.74
2022-11-24T00:43:56.835Z,991.66
2022-11-24T00:44:57.131Z,991.83
2022-11-24T00:45:56.920Z,991.80
2022-11-24T00:46:56.863Z,991.80
2022-11-24T00:47:56.776Z,991.76
2022-11-24T00:48:56.779Z,991.79
2022-11-24T00:49:56.768Z,991.80
2022-11-24T00:50:57.014Z,991.79
2022-11-24T00:51:56.727Z,991.74
2022-11-24T00:52:56.708Z,991.87
2022-11-24T00:53:56.938Z,991.75
2022-11-24T00:54:56.700Z,991.85
2022-11-24T00:55:57.047Z,991.84
2022-11-24T00:56:56.667Z,991.95
2022-11-24T00:57:56.672Z,991.87
2022-11-24T00:58:56.663Z,991.83
2022-11-24T00:59:56.650Z,991.83
2022-11-24T01:00:56.658Z,991.85
2022-11-24T01:01:56.937Z,991.90
2022-11-24T01:02:56.641Z,991.92
2022-11-24T01:03:56.599Z,991.94
2022-11-24T01:04:56.569Z,991.90
2022-11-24T01:05:56.584Z,991.97
2022-11-24T01:06:56.563Z,991.93
2022-11-24T01:07:56.863Z,992.00
2022-11-24T01:08:56.740Z,991.97
2022-11-24T01:09:56.510Z,991.99
2022-11-24T01:10:56.521Z,992.05
2022-11-24T01:11:56.522Z,992.02
2022-11-24T01:12:56.715Z,991.94
2022-11-24T01:13:56.494Z,991.94
2022-11-24T01:14:56.474Z,991.97
2022-11-24T01:15:56.490Z,992.00
2022-11-24T01:16:56.794Z,992.04
2022-11-24T01:17:56.425Z,992.02
2022-11-24T01:18:56.746Z,992.05
2022-11-24T01:19:56.411Z,992.07
2022-11-24T01:20:56.403Z,992.04
2022-11-24T01:21:56.715Z,992.16
2022-11-24T01:22:56.362Z,992.13
2022-11-24T01:23:56.631Z,992.08
2022-11-24T01:24:56.359Z,992.09
2022-11-24T01:25:56.357Z,992.06
2022-11-24T01:26:56.314Z,992.06
2022-11-24T01:27:56.313Z,992.13
2022-11-24T01:28:56.308Z,992.10
2022-11-24T01:29:56.617Z,992.13
2022-11-24T01:30:56.372Z,992.08
2022-11-24T01:31:56.277Z,992.10
2022-11-24T01:32:56.270Z,992.09
2022-11-24T01:33:56.244Z,992.12
2022-11-24T01:34:56.240Z,992.12
2022-11-24T01:35:56.487Z,992.06
2022-11-24T01:36:56.206Z,992.07
2022-11-24T01:37:56.210Z,992.15
2022-11-24T01:38:56.187Z,992.07
2022-11-24T01:39:56.186Z,992.15
2022-11-24T01:40:56.165Z,992.16
2022-11-24T01:41:56.470Z,992.19
2022-11-24T01:42:56.137Z,992.14
2022-11-24T01:43:56.144Z,992.27
2022-11-24T01:44:56.139Z,992.22
2022-11-24T01:45:56.171Z,992.24
2022-11-24T01:46:56.360Z,992.22
2022-11-24T01:47:56.101Z,992.25
2022-11-24T01:48:56.082Z,992.18
2022-11-24T01:49:56.057Z,992.18
2022-11-24T01:50:56.056Z,992.16
2022-11-24T01:51:56.362Z,992.19
2022-11-24T01:52:56.030Z,992.16
2022-11-24T01:53:56.009Z,992.15
2022-11-24T01:54:56.022Z,992.22
2022-11-24T01:55:56.004Z,992.22
2022-11-24T01:56:56.312Z,992.22
2022-11-24T01:57:55.960Z,992.26
2022-11-24T01:58:55.971Z,992.19
2022-11-24T01:59:55.956Z,992.26
2022-11-24T02:00:55.934Z,992.25
2022-11-24T02:01:56.017Z,992.26
2022-11-24T02:02:56.304Z,992.29
2022-11-24T02:03:55.905Z,992.26
2022-11-24T02:04:55.905Z,992.32
2022-11-24T02:05:55.883Z,992.29
2022-11-24T02:06:55.875Z,992.27
2022-11-24T02:07:56.244Z,992.32
2022-11-24T02:08:55.841Z,992.30
2022-11-24T02:09:55.822Z,992.31
2022-11-24T02:10:55.836Z,992.31
2022-11-24T02:11:55.816Z,992.35
2022-11-24T02:12:55.801Z,992.36
2022-11-24T02:13:56.083Z,992.31
2022-11-24T02:14:55.772Z,992.29
2022-11-24T02:15:55.800Z,992.33
2022-11-24T02:16:55.763Z,992.38
2022-11-24T02:17:55.746Z,992.37
2022-11-24T02:18:56.052Z,992.38
2022-11-24T02:19:55.725Z,992.36
2022-11-24T02:20:55.717Z,992.38
2022-11-24T02:21:55.706Z,992.37
2022-11-24T02:22:55.681Z,992.45
2022-11-24T02:23:55.680Z,992.36
2022-11-24T02:24:55.977Z,992.41
2022-11-24T02:25:55.666Z,992.31
2022-11-24T02:26:55.654Z,992.38
2022-11-24T02:27:55.820Z,992.38
2022-11-24T02:28:55.626Z,992.37
2022-11-24T02:29:55.595Z,992.39
2022-11-24T02:30:55.654Z,992.41
2022-11-24T02:31:55.576Z,992.39
2022-11-24T02:32:55.579Z,992.37
2022-11-24T02:33:55.766Z,992.38
2022-11-24T02:34:55.563Z,992.43
2022-11-24T02:35:55.527Z,992.41
2022-11-24T02:36:55.529Z,992.45
2022-11-24T02:37:55.517Z,992.40
2022-11-24T02:38:55.811Z,992.44
2022-11-24T02:39:55.486Z,992.49
2022-11-24T02:40:55.469Z,992.47
2022-11-24T02:41:55.481Z,992.46
2022-11-24T02:42:55.458Z,992.51
2022-11-24T02:43:55.438Z,992.51
2022-11-24T02:44:55.678Z,992.50
2022-11-24T02:45:55.444Z,992.52
2022-11-24T02:46:55.439Z,992.45
2022-11-24T02:47:55.399Z,992.52
2022-11-24T02:48:55.394Z,992.54
2022-11-24T02:49:55.680Z,992.54
2022-11-24T02:50:55.383Z,992.53
2022-11-24T02:51:55.354Z,992.59
2022-11-24T02:52:55.345Z,992.59
2022-11-24T02:53:55.333Z,992.64
2022-11-24T02:54:55.312Z,992.65
2022-11-24T02:55:55.607Z,992.57
2022-11-24T02:56:55.282Z,992.62
2022-11-24T02:57:55.283Z,992.62
2022-11-24T02:58:55.576Z,992.62
2022-11-24T02:59:55.242Z,992.66
2022-11-24T03:00:55.263Z,992.58
2022-11-24T03:01:55.565Z,992.62
2022-11-24T03:02:55.255Z,992.61
2022-11-24T03:03:55.202Z,992.68
2022-11-24T03:04:55.193Z,992.69
2022-11-24T03:05:55.182Z,992.67
2022-11-24T03:06:55.505Z,992.64
2022-11-24T03:07:55.215Z,992.66
2022-11-24T03:08:55.144Z,992.67
2022-11-24T03:09:55.163Z,992.70
2022-11-24T03:10:55.157Z,992.64
2022-11-24T03:11:55.105Z,992.62
2022-11-24T03:12:55.427Z,992.69
2022-11-24T03:13:55.116Z,992.66
2022-11-24T03:14:55.077Z,992.66
2022-11-24T03:15:55.082Z,992.67
2022-11-24T03:16:55.052Z,992.65
2022-11-24T03:17:55.043Z,992.66
2022-11-24T03:18:55.318Z,992.72
2022-11-24T03:19:56.430Z,992.70
2022-11-24T03:20:55.006Z,992.73
2022-11-24T03:21:54.997Z,992.76
2022-11-24T03:22:54.999Z,992.70
2022-11-24T03:23:54.969Z,992.69
2022-11-24T03:24:55.177Z,992.69
2022-11-24T03:25:54.961Z,992.69
2022-11-24T03:26:54.951Z,992.70
2022-11-24T03:27:54.918Z,992.66
2022-11-24T03:28:54.987Z,992.65
2022-11-24T03:29:55.173Z,992.70
2022-11-24T03:30:54.930Z,992.69
2022-11-24T03:31:54.893Z,992.71
2022-11-24T03:32:54.869Z,992.67
2022-11-24T03:33:54.861Z,992.67
2022-11-24T03:34:55.074Z,992.69
2022-11-24T03:35:54.852Z,992.67
2022-11-24T03:36:54.843Z,992.63
2022-11-24T03:37:54.824Z,992.69
2022-11-24T03:38:54.799Z,992.65
2022-11-24T03:39:54.804Z,992.70
2022-11-24T03:40:55.081Z,992.77
2022-11-24T03:41:54.771Z,992.67
2022-11-24T03:42:55.075Z,992.70
2022-11-24T03:43:54.742Z,992.71
2022-11-24T03:44:54.739Z,992.76
2022-11-24T03:45:54.777Z,992.78
2022-11-24T03:46:54.723Z,992.78
2022-11-24T03:47:54.692Z,992.85
2022-11-24T03:48:55.000Z,992.80
2022-11-24T03:49:54.681Z,992.84
2022-11-24T03:50:54.675Z,992.76
2022-11-24T03:51:54.651Z,992.79
2022-11-24T03:52:54.647Z,992.78
2022-11-24T03:53:54.623Z,992.79
2022-11-24T03:54:54.927Z,992.80
2022-11-24T03:55:54.617Z,992.78
2022-11-24T03:56:54.838Z,992.83
2022-11-24T03:57:54.597Z,992.87
2022-11-24T03:58:54.572Z,992.85
2022-11-24T03:59:54.877Z,992.87
2022-11-24T04:00:54.559Z,992.92
2022-11-24T04:01:54.573Z,992.90
2022-11-24T04:02:54.561Z,992.91
2022-11-24T04:03:54.527Z,992.89
2022-11-24T04:04:54.515Z,992.91
2022-11-24T04:05:54.818Z,992.89
2022-11-24T04:06:54.729Z,992.93
2022-11-24T04:07:54.502Z,992.96
2022-11-24T04:08:54.447Z,992.98
2022-11-24T04:09:54.461Z,992.98
2022-11-24T04:10:54.427Z,993.00
2022-11-24T04:11:54.758Z,992.95
2022-11-24T04:12:54.421Z,992.98
2022-11-24T04:13:54.410Z,993.08
2022-11-24T04:14:54.379Z,993.00
2022-11-24T04:15:54.504Z,993.03
2022-11-24T04:16:54.358Z,993.07
2022-11-24T04:17:54.623Z,993.06
2022-11-24T04:18:54.342Z,993.03
2022-11-24T04:19:54.327Z,993.00
2022-11-24T04:20:54.307Z,993.04
2022-11-24T04:21:54.313Z,993.00
2022-11-24T04:22:54.600Z,993.04
2022-11-24T04:23:54.305Z,993.05
2022-11-24T04:24:54.269Z,993.05
2022-11-24T04:25:54.262Z,993.05
2022-11-24T04:26:54.254Z,993.09
2022-11-24T04:27:54.229Z,993.06
2022-11-24T04:28:54.656Z,993.08
2022-11-24T04:29:54.212Z,993.12
2022-11-24T04:30:54.220Z,993.09
2022-11-24T04:31:54.205Z,993.09
2022-11-24T04:32:54.185Z,993.17
2022-11-24T04:33:54.473Z,993.13
2022-11-24T04:34:54.149Z,993.19
2022-11-24T04:35:54.148Z,993.18
2022-11-24T04:36:54.123Z,993.20
2022-11-24T04:37:54.129Z,993.23
2022-11-24T04:39:20.106Z,993.18
2022-11-24T04:39:55.105Z,993.22
2022-11-24T04:40:54.086Z,993.24
2022-11-24T04:41:54.296Z,993.28
2022-11-24T04:42:54.074Z,993.29
2022-11-24T04:43:54.367Z,993.26
2022-11-24T04:44:54.024Z,993.29
2022-11-24T04:45:54.015Z,993.31
2022-11-24T04:46:54.167Z,993.30
2022-11-24T04:47:54.006Z,993.27
2022-11-24T04:48:54.000Z,993.28
2022-11-24T04:49:54.214Z,993.36
2022-11-24T04:50:53.978Z,993.33
2022-11-24T04:51:54.154Z,993.34
2022-11-24T04:52:53.935Z,993.39
2022-11-24T04:53:53.938Z,993.40
2022-11-24T04:54:53.917Z,993.37
2022-11-24T04:55:53.918Z,993.39
2022-11-24T04:56:54.196Z,993.46
2022-11-24T04:57:53.883Z,993.48
2022-11-24T04:58:53.880Z,993.45
2022-11-24T04:59:53.878Z,993.47
2022-11-24T05:00:53.847Z,993.50
2022-11-24T05:01:53.930Z,993.49
2022-11-24T05:02:54.127Z,993.52
2022-11-24T05:03:53.875Z,993.51
2022-11-24T05:04:53.796Z,993.54
2022-11-24T05:05:53.801Z,993.52
2022-11-24T05:06:54.111Z,993.50
2022-11-24T05:07:53.898Z,993.52
2022-11-24T05:08:53.749Z,993.54
2022-11-24T05:09:59.403Z,993.55
2022-11-24T05:10:54.721Z,993.58
2022-11-24T05:11:53.736Z,993.61
2022-11-24T05:12:53.974Z,993.58
2022-11-24T05:13:53.734Z,993.59
2022-11-24T05:14:53.679Z,993.63
2022-11-24T05:15:53.753Z,993.66
2022-11-24T05:16:53.660Z,993.61
2022-11-24T05:17:53.869Z,993.67
2022-11-24T05:18:53.631Z,993.69
2022-11-24T05:19:53.641Z,993.72
2022-11-24T05:20:53.635Z,993.72
2022-11-24T05:21:53.612Z,993.76
2022-11-24T05:22:53.582Z,993.80
2022-11-24T05:23:53.868Z,993.79
2022-11-24T05:24:53.561Z,993.83
2022-11-24T05:25:53.561Z,993.79
2022-11-24T05:26:53.741Z,993.82
2022-11-24T05:27:53.572Z,993.88
2022-11-24T05:28:53.812Z,993.85
2022-11-24T05:29:53.523Z,993.88
2022-11-24T05:30:53.523Z,993.95
2022-11-24T05:31:53.495Z,993.92
2022-11-24T05:32:53.501Z,993.92
2022-11-24T05:33:53.465Z,993.95
2022-11-24T05:34:53.463Z,993.96
2022-11-24T05:35:53.471Z,993.98
2022-11-24T05:36:53.750Z,993.95
2022-11-24T05:37:53.424Z,994.04
2022-11-24T05:38:53.395Z,993.97
2022-11-24T05:39:53.406Z,993.97
2022-11-24T05:40:53.407Z,993.95
2022-11-24T05:41:53.374Z,993.96
2022-11-24T05:42:53.619Z,993.97
2022-11-24T05:43:53.355Z,993.94
2022-11-24T05:44:53.366Z,994.03
2022-11-24T05:45:53.353Z,994.04
2022-11-24T05:46:53.377Z,994.06
2022-11-24T05:47:53.625Z,994.06
2022-11-24T05:48:53.306Z,994.07
2022-11-24T05:49:53.293Z,994.04
2022-11-24T05:50:53.284Z,994.07
2022-11-24T05:51:53.268Z,994.02
2022-11-24T05:52:53.240Z,994.09
2022-11-24T05:53:53.485Z,994.08
2022-11-24T05:54:53.209Z,994.10
2022-11-24T05:55:53.214Z,994.13
2022-11-24T05:56:53.214Z,994.09
2022-11-24T05:57:53.216Z,994.11
2022-11-24T05:58:53.505Z,994.07
2022-11-24T05:59:53.197Z,994.08
2022-11-24T06:00:53.359Z,994.10
2022-11-24T06:01:53.289Z,994.12
2022-11-24T06:02:53.179Z,994.12
2022-11-24T06:03:53.146Z,994.06
2022-11-24T06:04:53.101Z,994.14
2022-11-24T06:05:53.428Z,994.17
2022-11-24T06:06:53.069Z,994.12
2022-11-24T06:07:53.137Z,994.15
2022-11-24T06:08:53.040Z,994.20
2022-11-24T06:09:53.060Z,994.21
2022-11-24T06:10:53.340Z,994.17
2022-11-24T06:11:53.048Z,994.16
2022-11-24T06:12:53.010Z,994.19
2022-11-24T06:13:53.061Z,994.19
2022-11-24T06:14:53.009Z,994.24
2022-11-24T06:15:53.251Z,994.20
2022-11-24T06:16:52.998Z,994.15
2022-11-24T06:17:52.990Z,994.16
2022-11-24T06:18:52.941Z,994.20
2022-11-24T06:19:52.946Z,994.20
2022-11-24T06:21:09.734Z,994.22
2022-11-24T06:21:53.949Z,994.24
2022-11-24T06:22:52.883Z,994.30
2022-11-24T06:23:52.904Z,994.30
2022-11-24T06:24:52.864Z,994.34
2022-11-24T06:25:52.891Z,994.29
2022-11-24T06:26:52.845Z,994.28
2022-11-24T06:27:53.155Z,994.37
2022-11-24T06:28:52.824Z,994.30
2022-11-24T06:29:52.864Z,994.34
2022-11-24T06:30:52.811Z,994.33
2022-11-24T06:31:52.929Z,994.33
2022-11-24T06:32:53.121Z,994.34
2022-11-24T06:33:52.774Z,994.41
2022-11-24T06:34:52.782Z,994.44
2022-11-24T06:35:52.758Z,994.38
2022-11-24T06:36:52.753Z,994.37
2022-11-24T06:37:52.973Z,994.39
2022-11-24T06:38:52.696Z,994.43
2022-11-24T06:39:52.738Z,994.42
2022-11-24T06:40:52.678Z,994.40
2022-11-24T06:41:52.677Z,994.48
2022-11-24T06:42:52.927Z,994.44
2022-11-24T06:43:52.657Z,994.56
2022-11-24T06:44:52.655Z,994.56
2022-11-24T06:45:52.716Z,994.56
2022-11-24T06:46:52.634Z,994.58
2022-11-24T06:47:52.608Z,994.53
2022-11-24T06:48:52.908Z,994.60
2022-11-24T06:49:52.616Z,994.62
2022-11-24T06:50:52.587Z,994.64
2022-11-24T06:51:52.593Z,994.65
2022-11-24T06:52:52.540Z,994.65
2022-11-24T06:53:52.549Z,994.66
2022-11-24T06:54:52.807Z,994.68
2022-11-24T06:55:52.538Z,994.66
2022-11-24T06:56:52.490Z,994.69
2022-11-24T06:57:52.762Z,994.74
2022-11-24T06:58:52.472Z,994.73
2022-11-24T06:59:52.480Z,994.73
2022-11-24T07:00:52.502Z,994.68
2022-11-24T07:01:52.442Z,994.72
2022-11-24T07:02:52.809Z,994.77
2022-11-24T07:03:52.419Z,994.72
2022-11-24T07:04:52.393Z,994.73
2022-11-24T07:05:52.428Z,994.72
2022-11-24T07:06:52.372Z,994.80
2022-11-24T07:07:52.418Z,994.83
2022-11-24T07:08:52.373Z,994.92
2022-11-24T07:09:52.360Z,994.83
2022-11-24T07:10:52.350Z,994.81
2022-11-24T07:11:52.330Z,994.88
2022-11-24T07:12:52.304Z,994.95
2022-11-24T07:13:56.675Z,994.88
2022-11-24T07:14:53.593Z,994.97
2022-11-24T07:15:52.310Z,994.95
2022-11-24T07:16:52.351Z,994.96
2022-11-24T07:17:52.592Z,994.98
2022-11-24T07:18:52.261Z,995.02
2022-11-24T07:19:52.246Z,995.03
2022-11-24T07:20:52.213Z,995.01
2022-11-24T07:21:52.241Z,995.06
2022-11-24T07:22:52.186Z,995.08
2022-11-24T07:23:52.481Z,995.08
2022-11-24T07:24:52.193Z,995.02
2022-11-24T07:25:52.166Z,995.09
2022-11-24T07:26:52.174Z,995.09
2022-11-24T07:27:52.148Z,995.12
2022-11-24T07:28:52.119Z,995.18
2022-11-24T07:29:52.447Z,995.17
2022-11-24T07:30:52.098Z,995.15
2022-11-24T07:31:52.141Z,995.17
2022-11-24T07:32:52.094Z,995.25
2022-11-24T07:33:52.355Z,995.32
2022-11-24T07:34:52.049Z,995.32
2022-11-24T07:35:52.071Z,995.31
2022-11-24T07:36:52.054Z,995.41
2022-11-24T07:37:52.332Z,995.44
2022-11-24T07:38:51.999Z,995.37
2022-11-24T07:39:52.237Z,995.42
2022-11-24T07:40:51.970Z,995.38
2022-11-24T07:41:52.015Z,995.45
2022-11-24T07:42:51.950Z,995.45
2022-11-24T07:43:52.218Z,995.51
2022-11-24T07:44:51.957Z,995.55
2022-11-24T07:45:52.023Z,995.49
2022-11-24T07:46:51.912Z,995.56
2022-11-24T07:47:51.938Z,995.58
2022-11-24T07:48:52.228Z,995.58
2022-11-24T07:49:51.895Z,995.60
2022-11-24T07:50:55.788Z,995.58
2022-11-24T07:51:51.888Z,995.61
2022-11-24T07:52:51.866Z,995.63
2022-11-24T07:53:51.859Z,995.70
2022-11-24T07:54:51.816Z,995.71
2022-11-24T07:55:51.840Z,995.65
2022-11-24T07:56:52.157Z,995.64
2022-11-24T07:57:51.805Z,995.85
2022-11-24T07:58:53.114Z,995.77
2022-11-24T07:59:51.790Z,995.82
2022-11-24T08:00:51.780Z,995.84
2022-11-24T08:01:52.062Z,995.91
2022-11-24T08:02:51.760Z,995.79
2022-11-24T08:03:51.774Z,995.76
2022-11-24T08:04:51.747Z,995.76
2022-11-24T08:06:16.066Z,995.85
2022-11-24T08:06:52.941Z,995.81
2022-11-24T08:07:51.740Z,995.97
2022-11-24T08:08:51.664Z,995.88
2022-11-24T08:09:51.642Z,995.99
2022-11-24T08:10:51.636Z,996.00
2022-11-24T08:11:51.615Z,996.00
2022-11-24T08:12:51.924Z,996.04
2022-11-24T08:13:51.613Z,996.01
2022-11-24T08:14:51.586Z,996.04
2022-11-24T08:15:51.565Z,996.09
2022-11-24T08:16:51.834Z,996.09
2022-11-24T08:17:51.572Z,996.10
2022-11-24T08:18:51.544Z,996.19
2022-11-24T08:19:51.518Z,996.17
2022-11-24T08:20:51.543Z,996.20
2022-11-24T08:21:51.524Z,996.22
2022-11-24T08:22:51.752Z,996.17
2022-11-24T08:23:51.501Z,996.23
2022-11-24T08:24:51.495Z,996.28
2022-11-24T08:25:56.673Z,996.29
2022-11-24T08:26:52.458Z,996.32
2022-11-24T08:27:51.448Z,996.21
2022-11-24T08:28:51.778Z,996.24
2022-11-24T08:29:51.469Z,996.26
2022-11-24T08:30:51.487Z,996.29
2022-11-24T08:31:51.434Z,996.30
2022-11-24T08:32:51.409Z,996.33
2022-11-24T08:33:51.384Z,996.31
2022-11-24T08:34:52.195Z,996.42
2022-11-24T08:35:51.357Z,996.43
2022-11-24T08:36:51.351Z,996.37
2022-11-24T08:37:51.311Z,996.34
2022-11-24T08:38:51.313Z,996.40
2022-11-24T08:39:51.291Z,996.36
2022-11-24T08:40:51.323Z,996.40
2022-11-24T08:41:51.298Z,996.36
2022-11-24T08:42:51.289Z,996.38
2022-11-24T08:43:51.233Z,996.32
2022-11-24T08:44:58.627Z,996.37
2022-11-24T08:45:52.445Z,996.41
2022-11-24T08:46:51.240Z,996.45
2022-11-24T08:47:51.215Z,996.47
2022-11-24T08:48:51.199Z,996.44
2022-11-24T08:49:51.202Z,996.52
2022-11-24T08:50:51.174Z,996.54
2022-11-24T08:51:51.443Z,996.50
2022-11-24T08:52:51.492Z,996.53
2022-11-24T08:53:51.117Z,996.59
2022-11-24T08:54:51.163Z,996.59
2022-11-24T08:55:51.095Z,996.55
2022-11-24T08:56:51.180Z,996.58
2022-11-24T08:57:51.075Z,996.61
2022-11-24T08:58:51.362Z,996.66
2022-11-24T08:59:51.081Z,996.57
2022-11-24T09:00:51.055Z,996.60
2022-11-24T09:01:51.053Z,996.64
2022-11-24T09:02:51.086Z,996.68
2022-11-24T09:03:51.660Z,996.65
2022-11-24T09:04:51.042Z,996.71
2022-11-24T09:05:52.460Z,996.70
2022-11-24T09:06:50.979Z,996.74
2022-11-24T09:07:50.993Z,996.69
2022-11-24T09:08:50.957Z,996.81
2022-11-24T09:09:51.188Z,996.85
2022-11-24T09:10:50.938Z,996.85
2022-11-24T09:11:50.913Z,996.84
2022-11-24T09:12:50.943Z,996.86
2022-11-24T09:13:50.889Z,996.89
2022-11-24T09:14:51.233Z,996.90
2022-11-24T09:15:50.868Z,996.90
2022-11-24T09:16:50.942Z,996.98
2022-11-24T09:17:50.849Z,996.96
2022-11-24T09:18:50.868Z,997.04
2022-11-24T09:19:50.847Z,997.02
2022-11-24T09:20:58.142Z,996.98
2022-11-24T09:21:50.807Z,997.02
2022-11-24T09:22:50.793Z,997.07
2022-11-24T09:23:50.802Z,997.04
2022-11-24T09:24:51.075Z,997.12
2022-11-24T09:25:50.769Z,997.12
2022-11-24T09:26:50.772Z,997.09
2022-11-24T09:27:50.750Z,997.09
2022-11-24T09:28:50.724Z,997.11
2022-11-24T09:29:50.704Z,997.11
2022-11-24T09:30:51.066Z,997.10
2022-11-24T09:31:50.675Z,997.15
2022-11-24T09:32:50.675Z,997.17
2022-11-24T09:33:50.682Z,997.22
2022-11-24T09:34:50.745Z,997.23
2022-11-24T09:35:50.633Z,997.25
2022-11-24T09:36:50.915Z,997.26
2022-11-24T09:37:50.632Z,997.24
2022-11-24T09:38:50.615Z,997.30
2022-11-24T09:39:50.587Z,997.28
2022-11-24T09:40:50.611Z,997.31
2022-11-24T09:41:50.584Z,997.34
2022-11-24T09:42:53.532Z,997.30
2022-11-24T09:43:50.538Z,997.27
2022-11-24T09:44:50.537Z,997.37
2022-11-24T09:46:05.127Z,997.37
2022-11-24T09:46:51.595Z,997.40
2022-11-24T09:47:50.527Z,997.43
2022-11-24T09:48:50.835Z,997.33
2022-11-24T09:49:51.674Z,997.36
2022-11-24T09:50:50.485Z,997.38
2022-11-24T09:51:50.466Z,997.42
2022-11-24T09:52:50.466Z,997.43
2022-11-24T09:53:50.447Z,997.44
2022-11-24T09:54:50.741Z,997.44
2022-11-24T09:55:50.405Z,997.44
2022-11-24T09:56:50.418Z,997.44
2022-11-24T09:57:50.397Z,997.46
2022-11-24T09:58:50.398Z,997.48
2022-11-24T09:59:50.350Z,997.51
2022-11-24T10:00:50.370Z,997.42
2022-11-24T10:01:50.421Z,997.49
2022-11-24T10:02:50.321Z,997.49
2022-11-24T10:03:50.302Z,997.54
2022-11-24T10:04:50.380Z,997.54
2022-11-24T10:05:50.307Z,997.57
2022-11-24T10:06:50.510Z,997.59
2022-11-24T10:07:50.341Z,997.62
2022-11-24T10:08:50.279Z,997.60
2022-11-24T10:09:50.231Z,997.68
2022-11-24T10:10:50.484Z,997.67
2022-11-24T10:11:50.214Z,997.67
2022-11-24T10:12:50.212Z,997.67
2022-11-24T10:13:50.218Z,997.67
2022-11-24T10:14:50.512Z,997.72
2022-11-24T10:15:50.225Z,997.69
2022-11-24T10:16:51.419Z,997.68
2022-11-24T10:17:50.171Z,997.73
2022-11-24T10:18:50.181Z,997.68
2022-11-24T10:19:50.117Z,997.73
2022-11-24T10:20:50.405Z,997.76
2022-11-24T10:21:50.097Z,997.74
2022-11-24T10:22:50.415Z,997.80
2022-11-24T10:23:50.076Z,997.81
2022-11-24T10:24:50.074Z,997.82
2022-11-24T10:25:50.046Z,997.82
2022-11-24T10:26:50.073Z,997.78
2022-11-24T10:27:50.032Z,997.84
2022-11-24T10:28:50.067Z,997.77
2022-11-24T10:29:50.057Z,997.87
2022-11-24T10:30:50.048Z,997.87
2022-11-24T10:31:50.005Z,997.84
2022-11-24T10:32:49.983Z,997.86
2022-11-24T10:33:50.159Z,997.85
2022-11-24T10:34:49.957Z,997.91
2022-11-24T10:35:49.955Z,997.86
2022-11-24T10:36:49.955Z,997.89
2022-11-24T10:37:49.935Z,997.88
2022-11-24T10:38:50.229Z,997.88
2022-11-24T10:39:49.901Z,997.92
2022-11-24T10:40:58.283Z,997.97
2022-11-24T10:41:50.885Z,997.94
2022-11-24T10:42:49.869Z,997.97
2022-11-24T10:43:50.098Z,997.88
2022-11-24T10:44:49.859Z,998.00
2022-11-24T10:45:49.846Z,997.95
2022-11-24T10:46:49.868Z,997.94
2022-11-24T10:47:49.813Z,997.96
2022-11-24T10:48:49.817Z,997.98
2022-11-24T10:49:49.769Z,998.02
2022-11-24T10:50:49.781Z,998.06
2022-11-24T10:51:50.082Z,998.01
2022-11-24T10:52:49.752Z,998.00
2022-11-24T10:53:49.724Z,998.02
2022-11-24T10:54:49.751Z,998.03
2022-11-24T10:55:49.703Z,998.05
2022-11-24T10:56:49.730Z,998.10
2022-11-24T10:57:49.993Z,998.05
2022-11-24T10:58:49.709Z,998.08
2022-11-24T10:59:49.680Z,998.12
2022-11-24T11:00:49.654Z,998.15
2022-11-24T11:01:49.704Z,998.12
2022-11-24T11:02:49.969Z,998.16
2022-11-24T11:03:49.641Z,998.13
2022-11-24T11:04:49.606Z,998.09
2022-11-24T11:05:49.576Z,998.11
2022-11-24T11:06:49.589Z,998.13
2022-11-24T11:07:49.624Z,998.15
2022-11-24T11:08:49.891Z,998.12
2022-11-24T11:09:49.562Z,998.16
2022-11-24T11:10:49.536Z,998.18
2022-11-24T11:11:49.552Z,998.25
2022-11-24T11:12:49.569Z,998.16
2022-11-24T11:13:49.798Z,998.23
2022-11-24T11:14:49.507Z,998.22
2022-11-24T11:15:49.596Z,998.25
2022-11-24T11:16:49.495Z,998.25
2022-11-24T11:17:49.480Z,998.27
2022-11-24T11:18:49.669Z,998.29
2022-11-24T11:19:50.380Z,998.28
2022-11-24T11:20:49.453Z,998.26
2022-11-24T11:21:49.425Z,998.29
2022-11-24T11:22:50.080Z,998.18
2022-11-24T11:23:49.690Z,998.24
2022-11-24T11:24:49.379Z,998.28
2022-11-24T11:25:49.350Z,998.33
2022-11-24T11:26:49.387Z,998.35
2022-11-24T11:27:49.356Z,998.38
2022-11-24T11:28:49.360Z,998.37
2022-11-24T11:34:02.916Z,998.39
2022-11-24T11:34:09.574Z,998.45
2022-11-24T11:34:50.649Z,998.48
2022-11-24T11:35:49.245Z,998.47
2022-11-24T11:36:49.248Z,998.53
2022-11-24T11:37:49.228Z,998.43
2022-11-24T11:38:49.224Z,998.45
2022-11-24T11:39:49.360Z,998.50
2022-11-24T11:40:49.450Z,998.40
2022-11-24T11:41:49.204Z,998.48
2022-11-24T11:43:04.505Z,998.49
2022-11-24T11:43:50.173Z,998.51
2022-11-24T11:44:49.153Z,998.45
2022-11-24T11:45:49.471Z,998.45
2022-11-24T11:46:49.302Z,998.43
2022-11-24T11:47:50.953Z,998.46
2022-11-24T11:48:49.122Z,998.39
2022-11-24T11:49:49.112Z,998.39
2022-11-24T11:51:20.939Z,998.46
2022-11-24T11:51:50.306Z,998.51
2022-11-24T11:52:49.083Z,998.48
2022-11-24T11:53:49.044Z,998.47
2022-11-24T11:54:49.063Z,998.52
2022-11-24T11:55:50.219Z,998.58
2022-11-24T11:56:49.044Z,998.53
2022-11-24T11:57:49.325Z,998.63
2022-11-24T11:58:48.998Z,998.55
2022-11-24T11:59:48.969Z,998.58
2022-11-24T12:00:49.017Z,998.58
2022-11-24T12:01:48.983Z,998.60
2022-11-24T12:02:53.286Z,998.58
2022-11-24T12:03:50.349Z,998.57
2022-11-24T12:04:49.130Z,998.61
2022-11-24T12:05:48.936Z,998.62
2022-11-24T12:06:48.928Z,998.58
2022-11-24T12:07:48.971Z,998.58
2022-11-24T12:09:18.664Z,998.55
2022-11-24T12:09:50.162Z,998.65
2022-11-24T12:10:48.867Z,998.59
2022-11-24T12:11:48.870Z,998.63
2022-11-24T12:12:48.822Z,998.65
2022-11-24T12:13:48.830Z,998.61
2022-11-24T12:14:48.817Z,998.58
2022-11-24T12:15:49.086Z,998.62
2022-11-24T12:16:48.797Z,998.62
2022-11-24T12:17:48.781Z,998.59
2022-11-24T12:18:57.678Z,998.57
2022-11-24T12:19:49.752Z,998.60
2022-11-24T12:20:48.725Z,998.55
2022-11-24T12:21:48.933Z,998.59
2022-11-24T12:22:48.729Z,998.62
2022-11-24T12:23:48.705Z,998.64
2022-11-24T12:24:48.733Z,998.70
2022-11-24T12:25:48.927Z,998.63
2022-11-24T12:26:48.655Z,998.67
2022-11-24T12:27:48.689Z,998.67
2022-11-24T12:28:48.661Z,998.66
2022-11-24T12:29:48.634Z,998.62
2022-11-24T12:30:48.869Z,998.68
2022-11-24T12:31:48.889Z,998.68